createdAt,value
2022-10-11T00:01:42.604Z,15.84
2022-10-11T00:04:09.182Z,15.92
2022-10-11T00:06:37.870Z,15.65
2022-10-11T00:09:05.352Z,15.76
2022-10-11T00:11:31.843Z,15.58
2022-10-11T00:13:59.013Z,15.20
2022-10-11T00:16:25.889Z,15.59
2022-10-11T00:18:52.430Z,15.62
2022-10-11T00:21:20.598Z,15.60
2022-10-11T00:23:47.867Z,15.38
2022-10-11T00:26:14.917Z,15.51
2022-10-11T00:28:41.504Z,15.23
2022-10-11T00:31:13.535Z,14.64
2022-10-11T00:33:40.396Z,14.51
2022-10-11T00:36:08.597Z,14.55
2022-10-11T00:38:35.573Z,14.59
2022-10-11T00:41:02.099Z,14.55
2022-10-11T00:43:30.201Z,14.58
2022-10-11T00:45:56.689Z,14.61
2022-10-11T00:48:48.224Z,14.47
2022-10-11T00:51:42.588Z,14.63
2022-10-11T00:54:12.804Z,14.47
2022-10-11T00:56:40.008Z,14.35
2022-10-11T00:59:11.627Z,14.48
2022-10-11T01:01:38.356Z,14.58
2022-10-11T01:04:04.955Z,14.65
2022-10-11T01:06:31.495Z,14.41
2022-10-11T01:08:58.057Z,14.54
2022-10-11T01:11:26.052Z,14.19
2022-10-11T01:13:59.248Z,14.29
2022-10-11T01:16:33.747Z,14.70
2022-10-11T01:19:33.938Z,14.66
2022-10-11T01:22:38.286Z,14.53
2022-10-11T01:25:15.926Z,14.38
2022-10-11T01:27:45.614Z,14.69
2022-10-11T01:30:33.482Z,15.08
2022-10-11T01:33:21.029Z,14.98
2022-10-11T01:36:06.162Z,14.95
2022-10-11T01:38:38.010Z,15.27
2022-10-11T01:41:09.132Z,15.20
2022-10-11T01:43:36.550Z,15.24
2022-10-11T01:46:04.314Z,14.53
2022-10-11T01:48:31.143Z,14.36
2022-10-11T01:50:58.770Z,14.60
2022-10-11T01:54:04.156Z,14.51
2022-10-11T01:56:56.209Z,14.47
2022-10-11T01:59:33.199Z,14.56
2022-10-11T02:02:02.686Z,14.58
2022-10-11T02:04:41.314Z,14.62
2022-10-11T02:07:50.553Z,14.57
2022-10-11T02:10:34.023Z,14.74
2022-10-11T02:13:06.684Z,15.12
2022-10-11T02:15:34.106Z,14.95
2022-10-11T02:18:03.225Z,15.18
2022-10-11T02:20:31.807Z,15.31
2022-10-11T02:23:03.801Z,14.92
2022-10-11T02:25:33.013Z,15.00
2022-10-11T02:28:01.052Z,14.90
2022-10-11T02:30:29.084Z,14.73
2022-10-11T02:32:56.316Z,14.78
2022-10-11T02:35:24.540Z,14.87
2022-10-11T02:38:13.991Z,14.65
2022-10-11T02:40:44.935Z,14.62
2022-10-11T02:43:18.801Z,14.85
2022-10-11T02:45:51.106Z,14.66
2022-10-11T02:48:18.260Z,14.56
2022-10-11T02:50:44.945Z,14.50
2022-10-11T02:53:11.441Z,14.72
2022-10-11T02:55:38.043Z,14.88
2022-10-11T02:58:04.643Z,14.88
2022-10-11T03:00:31.299Z,14.92
2022-10-11T03:02:57.795Z,14.88
2022-10-11T03:05:24.365Z,14.82
2022-10-11T03:07:50.885Z,14.96
2022-10-11T03:10:17.470Z,14.76
2022-10-11T03:12:44.151Z,14.84
2022-10-11T03:15:10.816Z,14.73
2022-10-11T03:17:37.638Z,14.94
2022-10-11T03:20:07.711Z,14.97
2022-10-11T03:22:34.282Z,15.51
2022-10-11T03:25:04.024Z,15.56
2022-10-11T03:27:32.629Z,15.61
2022-10-11T03:29:59.357Z,15.44
2022-10-11T03:32:26.391Z,15.53
2022-10-11T03:34:53.020Z,15.55
2022-10-11T03:37:20.190Z,15.39
2022-10-11T03:39:46.823Z,15.24
2022-10-11T03:42:13.637Z,15.51
2022-10-11T03:44:41.930Z,15.70
2022-10-11T03:47:08.632Z,15.50
2022-10-11T03:49:37.729Z,15.41
2022-10-11T03:52:07.848Z,15.55
2022-10-11T03:54:34.370Z,15.49
2022-10-11T03:57:00.897Z,15.72
2022-10-11T03:59:27.423Z,15.88
2022-10-11T04:01:54.198Z,16.07
2022-10-11T04:04:20.793Z,16.03
2022-10-11T04:06:47.377Z,16.14
2022-10-11T04:09:13.895Z,16.14
2022-10-11T04:11:40.437Z,16.10
2022-10-11T04:14:07.000Z,16.12
2022-10-11T04:16:34.094Z,16.13
2022-10-11T04:19:00.896Z,16.04
2022-10-11T04:21:27.488Z,16.04
2022-10-11T04:23:54.441Z,15.94
2022-10-11T04:26:21.011Z,16.06
2022-10-11T04:28:47.577Z,15.98
2022-10-11T04:31:14.276Z,16.00
2022-10-11T04:33:40.767Z,15.80
2022-10-11T04:36:08.084Z,16.03
2022-10-11T04:38:35.615Z,15.85
2022-10-11T04:41:13.680Z,15.89
2022-10-11T04:43:40.159Z,15.82
2022-10-11T04:46:07.586Z,15.79
2022-10-11T04:48:34.248Z,15.27
2022-10-11T04:51:00.771Z,15.63
2022-10-11T04:53:27.403Z,15.71
2022-10-11T04:56:02.678Z,15.76
2022-10-11T04:58:30.574Z,15.89
2022-10-11T05:00:57.427Z,15.78
2022-10-11T05:03:24.877Z,15.81
2022-10-11T05:05:51.551Z,15.23
2022-10-11T05:08:18.177Z,15.33
2022-10-11T05:10:57.947Z,15.32
2022-10-11T05:13:25.094Z,15.41
2022-10-11T05:15:51.872Z,15.13
2022-10-11T05:18:18.622Z,15.37
2022-10-11T05:20:46.366Z,15.51
2022-10-11T05:23:13.496Z,15.44
2022-10-11T05:25:40.227Z,15.19
2022-10-11T05:28:06.759Z,15.35
2022-10-11T05:30:33.361Z,15.24
2022-10-11T05:33:00.042Z,15.07
2022-10-11T05:35:26.619Z,15.24
2022-10-11T05:37:53.096Z,15.26
2022-10-11T05:40:19.708Z,15.26
2022-10-11T05:42:46.345Z,15.07
2022-10-11T05:45:12.858Z,15.27
2022-10-11T05:47:39.397Z,15.31
2022-10-11T05:50:06.403Z,15.35
2022-10-11T05:52:32.941Z,15.07
2022-10-11T05:54:59.525Z,15.24
2022-10-11T05:57:26.056Z,15.40
2022-10-11T05:59:52.572Z,15.23
2022-10-11T06:02:19.543Z,15.41
2022-10-11T06:04:46.118Z,15.41
2022-10-11T06:07:12.738Z,15.05
2022-10-11T06:09:39.734Z,14.92
2022-10-11T06:12:06.566Z,15.20
2022-10-11T06:14:33.171Z,14.92
2022-10-11T06:16:59.791Z,15.12
2022-10-11T06:19:26.322Z,15.19
2022-10-11T06:21:52.911Z,15.35
2022-10-11T06:24:19.515Z,15.18
2022-10-11T06:26:48.992Z,15.09
2022-10-11T06:29:15.573Z,14.80
2022-10-11T06:31:42.215Z,15.23
2022-10-11T06:34:08.854Z,14.90
2022-10-11T06:36:35.523Z,14.98
2022-10-11T06:39:02.203Z,14.69
2022-10-11T06:41:30.160Z,15.13
2022-10-11T06:43:56.835Z,15.14
2022-10-11T06:46:25.696Z,15.19
2022-10-11T06:48:52.719Z,15.30
2022-10-11T06:51:21.342Z,15.66
2022-10-11T06:53:55.790Z,15.74
2022-10-11T06:56:22.604Z,15.36
2022-10-11T06:58:50.931Z,15.22
2022-10-11T07:01:20.180Z,15.52
2022-10-11T07:03:47.543Z,15.38
2022-10-11T07:06:16.395Z,15.47
2022-10-11T07:08:43.320Z,15.41
2022-10-11T07:11:15.283Z,15.55
2022-10-11T07:13:42.203Z,15.66
2022-10-11T07:16:11.143Z,15.73
2022-10-11T07:18:38.411Z,15.42
2022-10-11T07:21:11.649Z,15.73
2022-10-11T07:23:38.196Z,15.84
2022-10-11T07:26:07.194Z,15.81
2022-10-11T07:28:34.970Z,15.89
2022-10-11T07:31:22.012Z,15.54
2022-10-11T07:33:48.875Z,15.61
2022-10-11T07:36:15.527Z,15.71
2022-10-11T07:38:43.901Z,15.63
2022-10-11T07:41:10.974Z,15.48
2022-10-11T07:43:38.226Z,15.16
2022-10-11T07:46:05.645Z,15.51
2022-10-11T07:48:36.507Z,15.60
2022-10-11T07:51:05.144Z,15.32
2022-10-11T07:53:31.819Z,15.69
2022-10-11T07:56:02.338Z,15.73
2022-10-11T07:58:29.410Z,15.87
2022-10-11T08:00:56.263Z,15.77
2022-10-11T08:03:22.964Z,15.42
2022-10-11T08:05:52.084Z,15.68
2022-10-11T08:08:19.403Z,16.18
2022-10-11T08:10:46.049Z,16.57
2022-10-11T08:13:12.650Z,16.36
2022-10-11T08:15:39.152Z,16.38
2022-10-11T08:18:05.737Z,16.18
2022-10-11T08:20:33.150Z,16.51
2022-10-11T08:23:00.043Z,15.78
2022-10-11T08:25:26.657Z,16.00
2022-10-11T08:27:53.203Z,16.27
2022-10-11T08:30:20.111Z,16.26
2022-10-11T08:32:46.697Z,16.55
2022-10-11T08:35:13.285Z,16.43
2022-10-11T08:37:39.986Z,16.51
2022-10-11T08:40:07.260Z,16.27
2022-10-11T08:42:46.559Z,16.49
2022-10-11T08:45:38.761Z,16.14
2022-10-11T08:48:13.523Z,16.13
2022-10-11T08:50:41.302Z,16.04
2022-10-11T08:53:13.406Z,15.92
2022-10-11T08:55:45.000Z,15.61
2022-10-11T08:58:21.139Z,16.21
2022-10-11T09:00:50.223Z,16.30
2022-10-11T09:03:23.404Z,16.23
2022-10-11T09:05:52.769Z,16.68
2022-10-11T09:08:33.440Z,16.20
2022-10-11T09:11:07.072Z,16.11
2022-10-11T09:14:11.413Z,16.05
2022-10-11T09:16:56.723Z,16.34
2022-10-11T09:19:29.324Z,16.14
2022-10-11T09:21:58.974Z,15.79
2022-10-11T09:24:50.045Z,15.82
2022-10-11T09:27:33.046Z,16.26
2022-10-11T09:30:14.664Z,16.24
2022-10-11T09:32:42.615Z,16.23
2022-10-11T09:35:18.798Z,16.60
2022-10-11T09:37:54.402Z,16.64
2022-10-11T09:40:39.191Z,16.98
2022-10-11T09:43:05.984Z,16.88
2022-10-11T09:45:32.550Z,16.55
2022-10-11T09:48:00.227Z,16.86
2022-10-11T09:50:29.653Z,16.49
2022-10-11T09:53:02.212Z,16.87
2022-10-11T09:55:43.619Z,17.08
2022-10-11T09:58:34.324Z,17.35
2022-10-11T10:01:28.150Z,17.42
2022-10-11T10:04:09.966Z,17.36
2022-10-11T10:06:37.507Z,17.61
2022-10-11T10:09:20.531Z,17.34
2022-10-11T10:11:47.355Z,16.79
2022-10-11T10:14:25.909Z,16.96
2022-10-11T10:17:00.991Z,17.41
2022-10-11T10:19:27.626Z,17.57
2022-10-11T10:21:55.277Z,18.22
2022-10-11T10:24:27.945Z,17.49
2022-10-11T10:27:22.934Z,17.56
2022-10-11T10:30:02.989Z,18.17
2022-10-11T10:32:46.175Z,18.38
2022-10-11T10:35:29.041Z,18.21
2022-10-11T10:38:17.455Z,18.10
2022-10-11T10:40:48.139Z,16.89
2022-10-11T10:43:20.050Z,17.57
2022-10-11T10:46:05.954Z,17.46
2022-10-11T10:51:57.763Z,18.04
2022-10-11T10:54:40.541Z,17.33
2022-10-11T10:57:16.043Z,17.88
2022-10-11T10:59:45.580Z,18.13
2022-10-11T11:02:40.809Z,17.78
2022-10-11T11:05:23.001Z,17.58
2022-10-11T11:08:15.428Z,17.37
2022-10-11T11:10:48.116Z,16.86
2022-10-11T11:13:33.465Z,17.38
2022-10-11T11:16:31.004Z,17.04
2022-10-11T11:19:25.749Z,17.43
2022-10-11T11:22:10.400Z,17.37
2022-10-11T11:25:03.690Z,17.01
2022-10-11T11:27:50.196Z,16.58
2022-10-11T11:30:20.183Z,17.32
2022-10-11T11:32:57.329Z,17.24
2022-10-11T11:35:39.769Z,17.75
2022-10-11T11:38:29.973Z,18.20
2022-10-11T11:41:02.651Z,18.53
2022-10-11T11:43:36.821Z,18.48
2022-10-11T11:46:09.561Z,18.55
2022-10-11T11:48:36.213Z,17.98
2022-10-11T11:51:09.514Z,17.90
2022-10-11T11:54:06.293Z,18.13
2022-10-11T11:56:48.901Z,18.23
2022-10-11T11:59:33.792Z,18.77
2022-10-11T12:02:18.862Z,17.80
2022-10-11T12:04:48.280Z,17.87
2022-10-11T12:07:20.096Z,18.42
2022-10-11T12:09:50.629Z,17.17
2022-10-11T12:12:39.745Z,18.26
2022-10-11T12:15:09.597Z,18.04
2022-10-11T12:17:55.772Z,18.17
2022-10-11T12:20:26.212Z,18.45
2022-10-11T12:22:54.289Z,18.16
2022-10-11T12:25:27.015Z,18.19
2022-10-11T12:27:56.138Z,18.08
2022-10-11T12:30:47.497Z,18.25
2022-10-11T12:33:26.039Z,18.12
2022-10-11T12:35:55.734Z,17.88
2022-10-11T12:38:26.135Z,18.09
2022-10-11T12:41:03.381Z,17.88
2022-10-11T12:43:32.993Z,17.67
2022-10-11T12:46:28.736Z,18.11
2022-10-11T12:49:12.749Z,18.32
2022-10-11T12:51:44.555Z,18.53
2022-10-11T12:54:36.988Z,18.46
2022-10-11T12:57:28.952Z,18.93
2022-10-11T13:00:08.076Z,19.08
2022-10-11T13:02:44.641Z,19.07
2022-10-11T13:05:26.784Z,18.56
2022-10-11T13:07:56.250Z,18.73
2022-10-11T13:10:36.107Z,18.92
2022-10-11T13:13:04.468Z,19.17
2022-10-11T13:15:31.627Z,18.74
2022-10-11T13:18:00.108Z,18.90
2022-10-11T13:20:30.892Z,18.21
2022-10-11T13:22:57.452Z,18.17
2022-10-11T13:25:30.033Z,18.10
2022-10-11T13:27:59.449Z,17.79
2022-10-11T13:30:38.085Z,17.74
2022-10-11T13:33:08.640Z,17.69
2022-10-11T13:35:36.681Z,17.66
2022-10-11T13:38:05.249Z,18.22
2022-10-11T13:40:32.184Z,18.05
2022-10-11T13:42:59.650Z,18.17
2022-10-11T13:45:27.397Z,17.55
2022-10-11T13:47:54.882Z,18.16
2022-10-11T13:50:30.699Z,17.38
2022-10-11T13:53:05.197Z,17.22
2022-10-11T13:55:32.628Z,17.47
2022-10-11T13:58:01.381Z,17.69
2022-10-11T14:00:33.944Z,17.31
2022-10-11T14:03:04.574Z,17.75
2022-10-11T14:05:39.387Z,17.64
2022-10-11T14:08:28.894Z,17.85
2022-10-11T14:10:57.794Z,17.61
2022-10-11T14:13:43.102Z,17.82
2022-10-11T14:16:12.706Z,17.90
2022-10-11T14:18:52.339Z,17.91
2022-10-11T14:21:18.769Z,17.51
2022-10-11T14:23:56.072Z,17.56
2022-10-11T14:26:26.870Z,17.77
2022-10-11T14:29:02.353Z,17.84
2022-10-11T14:31:31.975Z,17.78
2022-10-11T14:33:58.660Z,17.83
2022-10-11T14:36:26.055Z,16.71
2022-10-11T14:38:53.173Z,17.38
2022-10-11T14:41:19.833Z,17.41
2022-10-11T14:43:46.443Z,16.77
2022-10-11T14:46:24.472Z,16.80
2022-10-11T14:48:56.330Z,17.41
2022-10-11T14:51:26.398Z,17.12
2022-10-11T14:53:56.476Z,17.24
2022-10-11T14:56:23.066Z,17.24
2022-10-11T14:58:49.720Z,17.23
2022-10-11T15:01:16.961Z,17.28
2022-10-11T15:03:43.556Z,17.43
2022-10-11T15:06:21.749Z,17.69
2022-10-11T15:08:48.559Z,17.43
2022-10-11T15:11:17.445Z,17.18
2022-10-11T15:13:44.264Z,17.03
2022-10-11T15:16:14.412Z,16.91
2022-10-11T15:18:41.324Z,16.57
2022-10-11T15:21:07.981Z,16.75
2022-10-11T15:23:34.670Z,16.92
2022-10-11T15:26:01.264Z,17.10
2022-10-11T15:28:30.171Z,16.99
2022-10-11T15:30:57.005Z,17.14
2022-10-11T15:33:23.843Z,17.00
2022-10-11T15:35:50.899Z,16.88
2022-10-11T15:38:19.916Z,16.93
2022-10-11T15:40:47.715Z,16.47
2022-10-11T15:43:15.544Z,16.91
2022-10-11T15:45:42.525Z,17.04
2022-10-11T15:48:14.559Z,17.04
2022-10-11T15:50:41.434Z,16.88
2022-10-11T15:53:10.704Z,16.74
2022-10-11T15:55:39.857Z,16.46
2022-10-11T15:58:09.408Z,16.89
2022-10-11T16:00:36.029Z,16.71
2022-10-11T16:03:02.638Z,16.57
2022-10-11T16:05:29.222Z,16.45
2022-10-11T16:07:55.855Z,16.09
2022-10-11T16:10:22.625Z,16.19
2022-10-11T16:12:49.480Z,16.04
2022-10-11T16:15:16.133Z,16.13
2022-10-11T16:17:42.663Z,16.06
2022-10-11T16:20:09.489Z,16.39
2022-10-11T16:22:36.011Z,16.12
2022-10-11T16:25:10.215Z,16.07
2022-10-11T16:27:36.678Z,16.01
2022-10-11T16:30:03.932Z,16.11
2022-10-11T16:32:34.395Z,15.70
2022-10-11T16:35:05.158Z,15.72
2022-10-11T16:37:39.981Z,15.66
2022-10-11T16:40:07.838Z,15.64
2022-10-11T16:42:34.456Z,15.60
2022-10-11T16:45:01.495Z,15.77
2022-10-11T16:47:27.997Z,15.70
2022-10-11T16:49:54.615Z,15.66
2022-10-11T16:52:21.309Z,15.46
2022-10-11T16:54:48.409Z,15.57
2022-10-11T16:57:17.037Z,15.49
2022-10-11T16:59:43.657Z,15.51
2022-10-11T17:02:21.717Z,15.30
2022-10-11T17:04:50.544Z,15.38
2022-10-11T17:07:18.822Z,15.47
2022-10-11T17:09:46.107Z,15.58
2022-10-11T17:12:13.960Z,15.22
2022-10-11T17:14:40.804Z,15.42
2022-10-11T17:17:08.822Z,15.23
2022-10-11T17:19:41.368Z,15.14
2022-10-11T17:22:11.774Z,15.18
2022-10-11T17:24:38.658Z,15.26
2022-10-11T17:27:06.129Z,15.24
2022-10-11T17:29:32.971Z,15.17
2022-10-11T17:32:00.040Z,15.09
2022-10-11T17:34:26.648Z,15.20
2022-10-11T17:36:53.250Z,15.15
2022-10-11T17:39:22.238Z,14.98
2022-10-11T17:41:49.446Z,15.03
2022-10-11T17:44:19.008Z,14.87
2022-10-11T17:46:46.461Z,15.09
2022-10-11T17:49:13.488Z,15.06
2022-10-11T17:51:40.573Z,15.15
2022-10-11T17:54:12.161Z,15.07
2022-10-11T17:56:40.371Z,14.98
2022-10-11T17:59:08.179Z,15.11
2022-10-11T18:01:34.885Z,15.05
2022-10-11T18:04:04.190Z,15.23
2022-10-11T18:06:33.738Z,15.18
2022-10-11T18:09:01.645Z,15.19
2022-10-11T18:11:28.481Z,15.44
2022-10-11T18:13:55.055Z,15.46
2022-10-11T18:16:23.692Z,15.49
2022-10-11T18:18:50.513Z,15.61
2022-10-11T18:21:18.781Z,15.73
2022-10-11T18:23:46.599Z,15.83
2022-10-11T18:26:14.059Z,15.83
2022-10-11T18:28:41.574Z,15.93
2022-10-11T18:31:13.022Z,15.81
2022-10-11T18:33:40.368Z,15.85
2022-10-11T18:36:07.983Z,15.77
2022-10-11T18:38:35.149Z,15.76
2022-10-11T18:41:09.675Z,15.78
2022-10-11T18:43:36.583Z,15.80
2022-10-11T18:46:08.064Z,15.90
2022-10-11T18:48:34.779Z,15.56
2022-10-11T18:51:08.888Z,15.64
2022-10-11T18:53:37.463Z,15.79
2022-10-11T18:56:08.037Z,15.50
2022-10-11T18:58:37.208Z,15.63
2022-10-11T19:01:13.258Z,15.92
2022-10-11T19:03:40.203Z,15.60
2022-10-11T19:06:12.795Z,15.20
2022-10-11T19:08:39.610Z,15.20
2022-10-11T19:11:10.568Z,15.25
2022-10-11T19:13:37.081Z,15.56
2022-10-11T19:16:12.508Z,15.63
2022-10-11T19:18:43.931Z,15.78
2022-10-11T19:21:12.509Z,15.81
2022-10-11T19:23:41.770Z,15.67
2022-10-11T19:26:22.897Z,15.81
2022-10-11T19:28:55.988Z,15.82
2022-10-11T19:31:22.668Z,15.81
2022-10-11T19:33:49.583Z,15.56
2022-10-11T19:36:16.630Z,15.57
2022-10-11T19:38:48.339Z,15.44
2022-10-11T19:41:17.511Z,15.11
2022-10-11T19:43:44.188Z,15.08
2022-10-11T19:46:20.255Z,15.35
2022-10-11T19:48:54.276Z,15.43
2022-10-11T19:51:25.478Z,15.38
2022-10-11T19:53:59.710Z,15.27
2022-10-11T19:56:26.995Z,15.20
2022-10-11T19:58:53.727Z,15.53
2022-10-11T20:01:24.529Z,15.53
2022-10-11T20:03:58.780Z,15.69
2022-10-11T20:06:27.674Z,15.69
2022-10-11T20:09:16.748Z,15.78
2022-10-11T20:11:41.638Z,15.84
2022-10-11T20:14:08.736Z,15.82
2022-10-11T20:16:35.289Z,15.87
2022-10-11T20:19:02.129Z,15.83
2022-10-11T20:21:29.952Z,15.91
2022-10-11T20:24:02.073Z,15.98
2022-10-11T20:26:29.886Z,15.95
2022-10-11T20:28:56.682Z,15.91
2022-10-11T20:31:31.860Z,15.70
2022-10-11T20:34:01.664Z,15.41
2022-10-11T20:36:30.001Z,15.25
2022-10-11T20:38:57.851Z,15.21
2022-10-11T20:41:25.193Z,15.44
2022-10-11T20:43:54.074Z,15.62
2022-10-11T20:46:24.541Z,15.47
2022-10-11T20:49:01.211Z,15.34
2022-10-11T20:51:32.935Z,15.50
2022-10-11T20:54:00.583Z,15.79
2022-10-11T20:56:27.125Z,15.62
2022-10-11T20:58:54.988Z,15.76
2022-10-11T21:01:23.039Z,15.83
2022-10-11T21:03:50.299Z,15.52
2022-10-11T21:06:16.871Z,15.56
2022-10-11T21:08:43.423Z,15.53
2022-10-11T21:11:10.527Z,15.03
2022-10-11T21:13:37.448Z,15.02
2022-10-11T21:16:15.224Z,14.91
2022-10-11T21:18:42.157Z,14.57
2022-10-11T21:21:11.354Z,15.05
2022-10-11T21:23:38.477Z,15.00
2022-10-11T21:26:06.939Z,14.92
2022-10-11T21:28:33.964Z,14.68
2022-10-11T21:31:11.627Z,14.81
2022-10-11T21:33:38.625Z,14.80
2022-10-11T21:36:06.434Z,14.63
2022-10-11T21:38:33.079Z,14.62
2022-10-11T21:41:02.756Z,14.48
2022-10-11T21:43:29.229Z,14.60
2022-10-11T21:45:55.816Z,14.75
2022-10-11T21:48:22.529Z,14.74
2022-10-11T21:50:55.126Z,14.69
2022-10-11T21:53:21.748Z,14.69
2022-10-11T21:55:48.235Z,14.90
2022-10-11T21:58:14.916Z,14.89
2022-10-11T22:00:44.198Z,15.02
2022-10-11T22:03:11.207Z,15.26
2022-10-11T22:05:43.534Z,15.29
2022-10-11T22:08:10.222Z,15.29
2022-10-11T22:10:36.785Z,15.43
2022-10-11T22:13:03.325Z,15.54
2022-10-11T22:15:33.568Z,15.49
2022-10-11T22:18:01.023Z,15.57
2022-10-11T22:20:27.572Z,15.65
2022-10-11T22:22:54.189Z,15.66
2022-10-11T22:25:20.995Z,15.72
2022-10-11T22:27:47.575Z,15.79
2022-10-11T22:30:14.093Z,15.80
2022-10-11T22:32:40.786Z,15.85
2022-10-11T22:35:07.575Z,15.80
2022-10-11T22:37:34.301Z,15.62
2022-10-11T22:40:01.113Z,15.72
2022-10-11T22:42:29.411Z,15.68
2022-10-11T22:44:56.540Z,15.55
2022-10-11T22:47:23.161Z,15.64
2022-10-11T22:49:49.680Z,15.41
2022-10-11T22:52:19.264Z,15.07
2022-10-11T22:54:45.840Z,14.84
2022-10-11T22:57:12.344Z,14.69
2022-10-11T22:59:38.902Z,14.78
2022-10-11T23:02:05.410Z,15.05
2022-10-11T23:04:32.365Z,15.08
2022-10-11T23:07:02.560Z,15.31
2022-10-11T23:09:31.886Z,15.50
2022-10-11T23:11:59.100Z,15.34
2022-10-11T23:14:25.719Z,14.69
2022-10-11T23:16:52.452Z,14.30
2022-10-11T23:19:19.157Z,14.77
2022-10-11T23:21:45.779Z,14.99
2022-10-11T23:24:12.846Z,15.16
2022-10-11T23:26:39.361Z,15.27
2022-10-11T23:29:06.217Z,15.37
2022-10-11T23:31:32.802Z,15.48
2022-10-11T23:33:59.518Z,15.47
2022-10-11T23:36:26.519Z,15.32
2022-10-11T23:38:55.003Z,14.84
2022-10-11T23:41:23.101Z,14.35
2022-10-11T23:43:49.694Z,14.23
2022-10-11T23:46:16.221Z,14.12
2022-10-11T23:48:42.852Z,14.12
2022-10-11T23:51:10.134Z,14.11
2022-10-11T23:53:37.015Z,14.21
2022-10-11T23:56:04.385Z,14.37
2022-10-11T23:58:31.065Z,14.43
